Algosea — CFN4229 — position and weather

sailwx.info

Track history (hours):
 
Tides and Currents Weather Stations Pressure Air Temp Water Temp Dewpoint Dewpoint Depression Visibility Wind Speed Wind Dir Waves Ship Positions

Algosea

Last reported at 2015-Jan-29 15:33 UTC. Time now 2015-Jan-29 16:26 UTC.
Position N 42°33' W 080°01'.

Length 144 m; draft 7.1 m.

Type: Ship (hazmat cat C). MMSI: 316006868.

Date/timePositionNaut miles runAvg speedWind from/ knotsBaromVisibWave heightAir tempDewpointWater temp
2015-Jan-29 15:33N 42°33' W 080°01'8 7.9
2015-Jan-29 14:33N 42°40' W 080°04'7 7.3
2015-Jan-29 13:32N 42°48' W 080°03'0 0.0
2015-Jan-29 12:34N 42°48' W 080°03'0 0.0
2015-Jan-29 11:34N 42°48' W 080°03'0 0.0
2015-Jan-29 10:29N 42°48' W 080°03'0 0.0
2015-Jan-29 09:33N 42°48' W 080°03'0 0.0
2015-Jan-29 08:29N 42°48' W 080°03'0 0.0
2015-Jan-29 07:33N 42°48' W 080°03'0 0.0
2015-Jan-29 06:10N 42°48' W 080°03'0 0.0
2015-Jan-29 05:33N 42°48' W 080°03'0 0.0
2015-Jan-29 04:12N 42°48' W 080°03'0 0.0
2015-Jan-29 00:33N 42°48' W 080°03'0 0.0
2015-Jan-28 23:33N 42°48' W 080°03'0 0.0
2015-Jan-28 22:27N 42°48' W 080°03'0 0.0
2015-Jan-28 17:04N 42°48' W 080°03'0 0.0
2015-Jan-28 16:30N 42°48' W 080°03'0 0.0
2015-Jan-28 15:32N 42°48' W 080°03'0 0.0
2015-Jan-28 14:34N 42°48' W 080°03'0 0.0
2015-Jan-28 13:33N 42°48' W 080°03'0 0.0
2015-Jan-28 12:33N 42°48' W 080°03'0 0.0
2015-Jan-28 11:33N 42°48' W 080°03'0 0.0
2015-Jan-28 10:32N 42°48' W 080°03'0 0.0
2015-Jan-28 09:33N 42°48' W 080°03'0 0.0
2015-Jan-28 08:30N 42°48' W 080°03'0 0.0
2015-Jan-28 07:34N 42°48' W 080°03'0 0.0
2015-Jan-28 06:34N 42°48' W 080°03'0 0.0
2015-Jan-28 05:33N 42°48' W 080°03'0 0.0
2015-Jan-28 04:33N 42°48' W 080°03'0 0.0
2015-Jan-28 03:34N 42°48' W 080°03'0 0.0
2015-Jan-28 00:31N 42°48' W 080°03'0 0.0
2015-Jan-27 23:34N 42°48' W 080°03'0 0.0
2015-Jan-27 22:34N 42°48' W 080°03'0 0.0
2015-Jan-27 21:33N 42°48' W 080°03'0 0.0
2015-Jan-27 20:33N 42°48' W 080°03'0 0.0
2015-Jan-27 19:34N 42°48' W 080°03'0 0.0
2015-Jan-27 18:33N 42°48' W 080°03'0 0.0
2015-Jan-27 17:33N 42°48' W 080°03'0 0.0
2015-Jan-27 16:34N 42°48' W 080°03'0 0.0
2015-Jan-27 15:34N 42°48' W 080°03'0 0.0
2015-Jan-27 14:33N 42°48' W 080°03'0 0.0
2015-Jan-27 13:31N 42°48' W 080°03'4 4.7
2015-Jan-27 12:33N 42°44' W 080°06'1 1.4
2015-Jan-27 11:33N 42°43' W 080°06'4 4.5
2015-Jan-27 10:33N 42°40' W 080°01'5 5.0
2015-Jan-27 09:33N 42°35' W 079°58'6 5.5
2015-Jan-27 08:30N 42°31' W 080°03'5 5.5
2015-Jan-27 07:33N 42°30' W 080°10'4 3.6
2015-Jan-27 06:33N 42°30' W 080°15'4 3.7
2015-Jan-27 05:33N 42°30' W 080°20'4 3.3
2015-Jan-27 04:15N 42°29' W 080°25'  
Track history (hours):
 
Tides and Currents Weather Stations Pressure Air Temp Water Temp Dewpoint Dewpoint Depression Visibility Wind Speed Wind Dir Waves Ship Positions

Algosea

Last reported at 2015-Jan-29 15:33 UTC. Time now 2015-Jan-29 16:26 UTC.
Position N 42°33' W 080°01'.

Length 144 m; draft 7.1 m.

Type: Ship (hazmat cat C). MMSI: 316006868.

Date/timePositionNaut miles runAvg speedWind from/ knotsBaromVisibWave heightAir tempDewpointWater temp
2015-Jan-29 15:33N 42°33' W 080°01'8 7.9
2015-Jan-29 14:33N 42°40' W 080°04'7 7.3
2015-Jan-29 13:32N 42°48' W 080°03'0 0.0
2015-Jan-29 12:34N 42°48' W 080°03'0 0.0
2015-Jan-29 11:34N 42°48' W 080°03'0 0.0
2015-Jan-29 10:29N 42°48' W 080°03'0 0.0
2015-Jan-29 09:33N 42°48' W 080°03'0 0.0
2015-Jan-29 08:29N 42°48' W 080°03'0 0.0
2015-Jan-29 07:33N 42°48' W 080°03'0 0.0
2015-Jan-29 06:10N 42°48' W 080°03'0 0.0
2015-Jan-29 05:33N 42°48' W 080°03'0 0.0
2015-Jan-29 04:12N 42°48' W 080°03'0 0.0
2015-Jan-29 00:33N 42°48' W 080°03'0 0.0
2015-Jan-28 23:33N 42°48' W 080°03'0 0.0
2015-Jan-28 22:27N 42°48' W 080°03'0 0.0
2015-Jan-28 17:04N 42°48' W 080°03'0 0.0
2015-Jan-28 16:30N 42°48' W 080°03'0 0.0
2015-Jan-28 15:32N 42°48' W 080°03'0 0.0
2015-Jan-28 14:34N 42°48' W 080°03'0 0.0
2015-Jan-28 13:33N 42°48' W 080°03'0 0.0
2015-Jan-28 12:33N 42°48' W 080°03'0 0.0
2015-Jan-28 11:33N 42°48' W 080°03'0 0.0
2015-Jan-28 10:32N 42°48' W 080°03'0 0.0
2015-Jan-28 09:33N 42°48' W 080°03'0 0.0
2015-Jan-28 08:30N 42°48' W 080°03'0 0.0
2015-Jan-28 07:34N 42°48' W 080°03'0 0.0
2015-Jan-28 06:34N 42°48' W 080°03'0 0.0
2015-Jan-28 05:33N 42°48' W 080°03'0 0.0
2015-Jan-28 04:33N 42°48' W 080°03'0 0.0
2015-Jan-28 03:34N 42°48' W 080°03'0 0.0
2015-Jan-28 00:31N 42°48' W 080°03'0 0.0
2015-Jan-27 23:34N 42°48' W 080°03'0 0.0
2015-Jan-27 22:34N 42°48' W 080°03'0 0.0
2015-Jan-27 21:33N 42°48' W 080°03'0 0.0
2015-Jan-27 20:33N 42°48' W 080°03'0 0.0
2015-Jan-27 19:34N 42°48' W 080°03'0 0.0
2015-Jan-27 18:33N 42°48' W 080°03'0 0.0
2015-Jan-27 17:33N 42°48' W 080°03'0 0.0
2015-Jan-27 16:34N 42°48' W 080°03'0 0.0
2015-Jan-27 15:34N 42°48' W 080°03'0 0.0
2015-Jan-27 14:33N 42°48' W 080°03'0 0.0
2015-Jan-27 13:31N 42°48' W 080°03'4 4.7
2015-Jan-27 12:33N 42°44' W 080°06'1 1.4
2015-Jan-27 11:33N 42°43' W 080°06'4 4.5
2015-Jan-27 10:33N 42°40' W 080°01'5 5.0
2015-Jan-27 09:33N 42°35' W 079°58'6 5.5
2015-Jan-27 08:30N 42°31' W 080°03'5 5.5
2015-Jan-27 07:33N 42°30' W 080°10'4 3.6
2015-Jan-27 06:33N 42°30' W 080°15'4 3.7
2015-Jan-27 05:33N 42°30' W 080°20'4 3.3
2015-Jan-27 04:15N 42°29' W 080°25'  

Dump ship's entire track history